createdAt,value
2022-09-12T00:00:00.312Z,18.8
2022-09-12T00:01:00.319Z,18.8
2022-09-12T00:02:00.338Z,18.7
2022-09-12T00:03:00.397Z,18.7
2022-09-12T00:04:00.312Z,18.7
2022-09-12T00:05:00.318Z,18.6
2022-09-12T00:06:00.327Z,18.6
2022-09-12T00:07:00.399Z,18.6
2022-09-12T00:08:00.374Z,18.7
2022-09-12T00:09:00.516Z,18.7
2022-09-12T00:10:00.310Z,18.7
2022-09-12T00:11:00.375Z,18.7
2022-09-12T00:12:00.287Z,18.7
2022-09-12T00:13:00.421Z,18.8
2022-09-12T00:14:00.337Z,18.9
2022-09-12T00:15:00.466Z,18.9
2022-09-12T00:16:00.480Z,19.0
2022-09-12T00:17:00.351Z,19.1
2022-09-12T00:18:00.307Z,19.0
2022-09-12T00:19:00.312Z,19.0
2022-09-12T00:20:00.308Z,19.0
2022-09-12T00:21:00.303Z,18.9
2022-09-12T00:22:00.435Z,18.9
2022-09-12T00:23:00.414Z,19.0
2022-09-12T00:24:00.304Z,18.9
2022-09-12T00:25:00.314Z,18.9
2022-09-12T00:26:00.295Z,18.8
2022-09-12T00:27:00.296Z,18.8
2022-09-12T00:28:00.540Z,18.8
2022-09-12T00:29:00.394Z,18.7
2022-09-12T00:30:00.309Z,18.7
2022-09-12T00:31:00.320Z,18.7
2022-09-12T00:32:00.327Z,18.7
2022-09-12T00:33:00.392Z,18.7
2022-09-12T00:34:00.288Z,18.7
2022-09-12T00:35:00.312Z,18.8
2022-09-12T00:36:00.313Z,18.8
2022-09-12T00:37:00.280Z,18.8
2022-09-12T00:38:00.311Z,18.8
2022-09-12T00:39:00.402Z,18.9
2022-09-12T00:40:00.431Z,18.9
2022-09-12T00:41:00.317Z,19.0
2022-09-12T00:42:00.304Z,19.0
2022-09-12T00:43:00.312Z,18.9
2022-09-12T00:44:00.290Z,18.9
2022-09-12T00:45:00.422Z,18.9
2022-09-12T00:46:00.379Z,18.9
2022-09-12T00:47:00.391Z,18.9
2022-09-12T00:48:00.760Z,18.8
2022-09-12T00:49:00.332Z,18.8
2022-09-12T00:50:00.285Z,18.8
2022-09-12T00:51:00.295Z,18.7
2022-09-12T00:52:00.322Z,18.7
2022-09-12T00:53:00.296Z,18.7
2022-09-12T00:54:00.406Z,18.6
2022-09-12T00:55:00.293Z,18.6
2022-09-12T00:56:00.310Z,18.6
2022-09-12T00:57:00.311Z,18.6
2022-09-12T00:58:00.310Z,18.6
2022-09-12T00:59:00.299Z,18.5
2022-09-12T01:00:00.404Z,18.5
2022-09-12T01:01:00.422Z,18.5
2022-09-12T01:02:00.497Z,18.5
2022-09-12T01:03:00.297Z,18.5
2022-09-12T01:04:00.303Z,18.5
2022-09-12T01:05:00.292Z,18.5
2022-09-12T01:06:00.429Z,18.5
2022-09-12T01:07:00.291Z,18.5
2022-09-12T01:08:00.293Z,18.6
2022-09-12T01:09:00.280Z,18.6
2022-09-12T01:10:00.293Z,18.6
2022-09-12T01:11:00.294Z,18.6
2022-09-12T01:12:00.370Z,18.6
2022-09-12T01:13:00.299Z,18.6
2022-09-12T01:14:00.319Z,18.5
2022-09-12T01:15:00.392Z,18.5
2022-09-12T01:16:00.296Z,18.5
2022-09-12T01:17:00.311Z,18.5
2022-09-12T01:18:00.404Z,18.4
2022-09-12T01:19:00.311Z,18.4
2022-09-12T01:20:00.308Z,18.4
2022-09-12T01:21:00.294Z,18.4
2022-09-12T01:22:00.276Z,18.4
2022-09-12T01:23:00.319Z,18.4
2022-09-12T01:24:00.392Z,18.4
2022-09-12T01:25:00.281Z,18.4
2022-09-12T01:26:00.312Z,18.3
2022-09-12T01:27:00.370Z,18.3
2022-09-12T01:28:00.277Z,18.4
2022-09-12T01:29:00.325Z,18.4
2022-09-12T01:30:00.461Z,18.3
2022-09-12T01:31:00.290Z,18.4
2022-09-12T01:32:00.506Z,18.4
2022-09-12T01:33:00.274Z,18.4
2022-09-12T01:34:00.366Z,18.4
2022-09-12T01:35:00.366Z,18.4
2022-09-12T01:36:00.316Z,18.4
2022-09-12T01:37:00.343Z,18.4
2022-09-12T01:38:00.368Z,18.4
2022-09-12T01:39:00.290Z,18.4
2022-09-12T01:40:00.412Z,18.4
2022-09-12T01:41:00.295Z,18.3
2022-09-12T01:42:00.296Z,18.3
2022-09-12T01:43:00.397Z,18.3
2022-09-12T01:44:00.324Z,18.3
2022-09-12T01:45:00.300Z,18.3
2022-09-12T01:46:00.436Z,18.3
2022-09-12T01:47:00.299Z,18.4
2022-09-12T01:48:00.295Z,18.4
2022-09-12T01:49:00.531Z,18.5
2022-09-12T01:50:00.294Z,18.5
2022-09-12T01:51:00.299Z,18.5
2022-09-12T01:52:00.281Z,18.4
2022-09-12T01:53:00.318Z,18.4
2022-09-12T01:54:00.309Z,18.3
2022-09-12T01:55:00.421Z,18.3
2022-09-12T01:56:00.317Z,18.3
2022-09-12T01:57:00.376Z,18.2
2022-09-12T01:58:00.296Z,18.2
2022-09-12T01:59:00.320Z,18.2
2022-09-12T02:00:00.342Z,18.2
2022-09-12T02:01:00.449Z,18.2
2022-09-12T02:02:00.348Z,18.1
2022-09-12T02:03:00.445Z,18.2
2022-09-12T02:04:00.332Z,18.2
2022-09-12T02:05:00.302Z,18.1
2022-09-12T02:06:00.313Z,18.2
2022-09-12T02:07:00.305Z,18.1
2022-09-12T02:08:00.295Z,18.2
2022-09-12T02:09:00.389Z,18.2
2022-09-12T02:10:00.364Z,18.2
2022-09-12T02:11:00.354Z,18.2
2022-09-12T02:12:00.322Z,18.2
2022-09-12T02:13:00.345Z,18.2
2022-09-12T02:14:00.296Z,18.2
2022-09-12T02:15:00.449Z,18.2
2022-09-12T02:16:00.383Z,18.1
2022-09-12T02:17:00.335Z,18.1
2022-09-12T02:18:00.377Z,18.1
2022-09-12T02:19:00.474Z,18.1
2022-09-12T02:20:00.327Z,18.1
2022-09-12T02:21:00.416Z,18.1
2022-09-12T02:22:00.354Z,18.1
2022-09-12T02:23:00.310Z,18.1
2022-09-12T02:24:00.309Z,18.1
2022-09-12T02:25:00.307Z,18.1
2022-09-12T02:26:00.312Z,18.2
2022-09-12T02:27:00.393Z,18.1
2022-09-12T02:28:00.313Z,18.1
2022-09-12T02:29:00.321Z,18.1
2022-09-12T02:30:00.320Z,18.1
2022-09-12T02:31:00.358Z,18.1
2022-09-12T02:32:00.845Z,18.1
2022-09-12T02:33:00.347Z,18.1
2022-09-12T02:34:00.393Z,18.1
2022-09-12T02:35:00.281Z,18.1
2022-09-12T02:36:00.304Z,18.1
2022-09-12T02:37:00.307Z,18.1
2022-09-12T02:38:00.388Z,18.1
2022-09-12T02:39:00.284Z,18.1
2022-09-12T02:40:00.381Z,18.1
2022-09-12T02:41:00.319Z,18.1
2022-09-12T02:42:00.290Z,18.1
2022-09-12T02:43:00.302Z,18.1
2022-09-12T02:44:00.398Z,18.0
2022-09-12T02:45:00.307Z,18.0
2022-09-12T02:46:00.369Z,18.0
2022-09-12T02:47:00.340Z,18.0
2022-09-12T02:48:00.316Z,18.0
2022-09-12T02:49:00.466Z,18.1
2022-09-12T02:50:00.511Z,18.1
2022-09-12T02:51:00.312Z,18.1
2022-09-12T02:52:00.316Z,18.1
2022-09-12T02:53:00.278Z,18.1
2022-09-12T02:54:00.298Z,18.1
2022-09-12T02:55:00.295Z,18.2
2022-09-12T02:56:00.386Z,18.2
2022-09-12T02:57:00.293Z,18.2
2022-09-12T02:58:00.295Z,18.2
2022-09-12T02:59:00.292Z,18.1
2022-09-12T03:00:00.288Z,18.1
2022-09-12T03:01:00.323Z,18.1
2022-09-12T03:02:00.404Z,18.1
2022-09-12T03:03:00.286Z,18.2
2022-09-12T03:04:00.390Z,18.2
2022-09-12T03:05:00.299Z,18.2
2022-09-12T03:06:00.399Z,18.3
2022-09-12T03:07:00.316Z,18.3
2022-09-12T03:08:00.306Z,18.4
2022-09-12T03:09:00.296Z,18.4
2022-09-12T03:10:00.308Z,18.5
2022-09-12T03:11:00.377Z,18.5
2022-09-12T03:12:00.311Z,18.6
2022-09-12T03:13:00.305Z,18.6
2022-09-12T03:14:00.358Z,18.7
2022-09-12T03:15:00.438Z,18.7
2022-09-12T03:16:00.342Z,18.7
2022-09-12T03:17:00.323Z,18.7
2022-09-12T03:18:00.364Z,18.7
2022-09-12T03:19:00.408Z,18.7
2022-09-12T03:20:00.471Z,18.7
2022-09-12T03:21:00.484Z,18.8
2022-09-12T03:22:00.372Z,18.8
2022-09-12T03:23:00.314Z,18.8
2022-09-12T03:24:00.314Z,18.9
2022-09-12T03:25:00.384Z,19.0
2022-09-12T03:26:00.292Z,19.0
2022-09-12T03:27:00.511Z,19.1
2022-09-12T03:28:00.311Z,19.2
2022-09-12T03:29:00.312Z,19.2
2022-09-12T03:30:00.306Z,19.2
2022-09-12T03:31:00.386Z,19.3
2022-09-12T03:32:00.317Z,19.3
2022-09-12T03:33:00.521Z,19.3
2022-09-12T03:34:00.311Z,19.3
2022-09-12T03:35:00.372Z,19.3
2022-09-12T03:36:00.298Z,19.3
2022-09-12T03:37:00.386Z,19.4
2022-09-12T03:38:00.301Z,19.4
2022-09-12T03:39:00.298Z,19.4
2022-09-12T03:40:00.375Z,19.4
2022-09-12T03:41:00.312Z,19.4
2022-09-12T03:42:00.298Z,19.4
2022-09-12T03:43:00.396Z,19.5
2022-09-12T03:44:00.300Z,19.5
2022-09-12T03:45:00.307Z,19.5
2022-09-12T03:46:00.478Z,19.5
2022-09-12T03:47:00.380Z,19.5
2022-09-12T03:48:00.299Z,19.5
2022-09-12T03:49:00.315Z,19.6
2022-09-12T03:50:00.661Z,19.7
2022-09-12T03:51:00.302Z,19.7
2022-09-12T03:52:00.301Z,19.8
2022-09-12T03:53:00.430Z,19.9
2022-09-12T03:54:00.340Z,19.9
2022-09-12T03:55:00.338Z,20.0
2022-09-12T03:56:00.295Z,20.0
2022-09-12T03:57:00.326Z,20.0
2022-09-12T03:58:00.392Z,20.1
2022-09-12T03:59:00.292Z,20.2
2022-09-12T04:00:00.299Z,20.2
2022-09-12T04:01:00.327Z,20.2
2022-09-12T04:02:00.362Z,20.2
2022-09-12T04:03:00.387Z,20.2
2022-09-12T04:04:00.284Z,20.2
2022-09-12T04:05:00.413Z,20.2
2022-09-12T04:06:00.349Z,20.2
2022-09-12T04:07:00.288Z,20.3
2022-09-12T04:08:00.311Z,20.3
2022-09-12T04:09:00.400Z,20.3
2022-09-12T04:10:00.301Z,20.3
2022-09-12T04:11:00.299Z,20.4
2022-09-12T04:12:00.318Z,20.5
2022-09-12T04:13:00.323Z,20.5
2022-09-12T04:14:00.315Z,20.5
2022-09-12T04:15:00.381Z,20.5
2022-09-12T04:16:00.323Z,20.5
2022-09-12T04:17:00.397Z,20.6
2022-09-12T04:18:05.060Z,20.6
2022-09-12T04:19:00.340Z,20.7
2022-09-12T04:20:00.452Z,20.7
2022-09-12T04:21:00.334Z,20.7
2022-09-12T04:22:00.369Z,20.7
2022-09-12T04:23:00.478Z,20.7
2022-09-12T04:24:00.305Z,20.7
2022-09-12T04:25:00.330Z,20.7
2022-09-12T04:26:00.416Z,20.7
2022-09-12T04:27:01.381Z,20.8
2022-09-12T04:28:00.390Z,20.8
2022-09-12T04:29:00.315Z,20.9
2022-09-12T04:30:00.309Z,21.0
2022-09-12T04:31:00.349Z,21.1
2022-09-12T04:32:00.367Z,21.1
2022-09-12T04:33:01.525Z,21.2
2022-09-12T04:34:00.299Z,21.3
2022-09-12T04:35:00.391Z,21.4
2022-09-12T04:36:00.316Z,21.5
2022-09-12T04:37:00.552Z,21.6
2022-09-12T04:38:00.313Z,21.6
2022-09-12T04:39:00.404Z,21.7
2022-09-12T04:40:00.391Z,21.8
2022-09-12T04:41:00.300Z,21.8
2022-09-12T04:42:00.278Z,21.9
2022-09-12T04:43:00.391Z,21.9
2022-09-12T04:44:00.309Z,21.9
2022-09-12T04:45:00.307Z,21.9
2022-09-12T04:46:00.340Z,21.9
2022-09-12T04:47:00.305Z,22.0
2022-09-12T04:48:00.401Z,22.0
2022-09-12T04:49:00.294Z,22.1
2022-09-12T04:50:00.308Z,22.1
2022-09-12T04:51:00.339Z,22.1
2022-09-12T04:52:00.288Z,22.1
2022-09-12T04:53:00.340Z,22.2
2022-09-12T04:54:00.482Z,22.2
2022-09-12T04:55:00.382Z,22.2
2022-09-12T04:56:00.345Z,22.3
2022-09-12T04:57:00.455Z,22.3
2022-09-12T04:58:00.435Z,22.6
2022-09-12T04:59:00.319Z,24.8
2022-09-12T05:00:03.851Z,28.0
2022-09-12T05:01:00.363Z,30.0
2022-09-12T05:02:00.392Z,31.5
2022-09-12T05:03:00.492Z,32.6
2022-09-12T05:04:00.302Z,33.6
2022-09-12T05:05:00.311Z,34.4
2022-09-12T05:06:00.300Z,35.1
2022-09-12T05:07:00.286Z,35.6
2022-09-12T05:08:00.294Z,36.2
2022-09-12T05:09:00.405Z,36.7
2022-09-12T05:10:00.410Z,37.2
2022-09-12T05:11:00.298Z,37.7
2022-09-12T05:12:04.137Z,38.0
2022-09-12T05:13:00.280Z,38.2
2022-09-12T05:14:00.312Z,38.6
2022-09-12T05:15:00.387Z,39.0
2022-09-12T05:16:00.295Z,39.2
2022-09-12T05:17:00.331Z,39.6
2022-09-12T05:18:00.291Z,40.1
2022-09-12T05:19:00.483Z,40.5
2022-09-12T05:20:00.469Z,40.9
2022-09-12T05:21:00.580Z,41.2
2022-09-12T05:22:00.628Z,41.3
2022-09-12T05:23:00.370Z,41.2
2022-09-12T05:24:00.278Z,40.8
2022-09-12T05:25:00.420Z,40.7
2022-09-12T05:26:00.324Z,40.8
2022-09-12T05:27:00.338Z,41.0
2022-09-12T05:28:00.287Z,41.0
2022-09-12T05:29:00.499Z,40.6
2022-09-12T05:30:00.299Z,40.3
2022-09-12T05:31:00.790Z,40.3
2022-09-12T05:32:00.342Z,40.6
2022-09-12T05:33:00.308Z,40.8
2022-09-12T05:34:00.355Z,41.0
2022-09-12T05:35:00.827Z,41.1
2022-09-12T05:36:00.385Z,41.4
2022-09-12T05:37:00.400Z,41.5
2022-09-12T05:38:00.380Z,41.4
2022-09-12T05:39:00.277Z,41.3
2022-09-12T05:40:00.458Z,41.5
2022-09-12T05:41:00.404Z,41.6
2022-09-12T05:42:00.312Z,41.7
2022-09-12T05:43:00.276Z,42.1
2022-09-12T05:44:00.297Z,42.5
2022-09-12T05:45:00.287Z,42.8
2022-09-12T05:46:00.301Z,42.9
2022-09-12T05:47:00.375Z,42.9
2022-09-12T05:48:00.275Z,43.0
2022-09-12T05:49:00.309Z,42.9
2022-09-12T05:50:00.305Z,42.8
2022-09-12T05:51:00.287Z,42.5
2022-09-12T05:52:00.320Z,42.5
2022-09-12T05:53:00.396Z,42.2
2022-09-12T05:54:00.290Z,42.5
2022-09-12T05:55:00.299Z,42.8
2022-09-12T05:56:00.822Z,43.1
2022-09-12T05:57:00.307Z,43.2
2022-09-12T05:58:00.305Z,43.3
2022-09-12T05:59:00.375Z,43.6
2022-09-12T06:00:00.288Z,43.3
2022-09-12T06:01:00.336Z,42.9
2022-09-12T06:02:00.415Z,42.8
2022-09-12T06:03:00.368Z,42.8
2022-09-12T06:04:00.348Z,43.0
2022-09-12T06:05:00.413Z,42.7
2022-09-12T06:06:00.546Z,42.3
2022-09-12T06:07:00.324Z,42.1
2022-09-12T06:08:00.359Z,42.3
2022-09-12T06:09:00.285Z,42.6
2022-09-12T06:10:00.310Z,43.0
2022-09-12T06:11:02.245Z,43.4
2022-09-12T06:12:00.473Z,43.5
2022-09-12T06:13:00.297Z,43.4
2022-09-12T06:14:00.304Z,43.2
2022-09-12T06:15:00.299Z,43.1
2022-09-12T06:16:00.301Z,43.3
2022-09-12T06:17:00.429Z,43.2
2022-09-12T06:18:00.299Z,43.0
2022-09-12T06:19:00.310Z,43.1
2022-09-12T06:20:00.308Z,43.4
2022-09-12T06:21:00.289Z,43.7
2022-09-12T06:22:00.290Z,44.1
2022-09-12T06:23:00.439Z,44.6
2022-09-12T06:24:00.314Z,45.0
2022-09-12T06:25:00.322Z,45.0
2022-09-12T06:26:00.296Z,45.0
2022-09-12T06:27:00.304Z,44.9
2022-09-12T06:28:00.308Z,44.5
2022-09-12T06:29:00.412Z,44.1
2022-09-12T06:30:00.299Z,43.9
2022-09-12T06:31:00.454Z,44.1
2022-09-12T06:32:00.337Z,44.5
2022-09-12T06:33:00.332Z,44.8
2022-09-12T06:34:00.364Z,44.9
2022-09-12T06:35:00.358Z,45.1
2022-09-12T06:36:00.335Z,45.5
2022-09-12T06:37:00.317Z,45.8
2022-09-12T06:38:00.373Z,46.0
2022-09-12T06:39:00.323Z,46.0
2022-09-12T06:40:01.899Z,45.9
2022-09-12T06:41:00.320Z,45.8
2022-09-12T06:42:00.288Z,45.9
2022-09-12T06:43:00.278Z,46.2
2022-09-12T06:44:00.408Z,46.4
2022-09-12T06:45:00.315Z,46.4
2022-09-12T06:46:00.330Z,46.3
2022-09-12T06:47:00.295Z,46.4
2022-09-12T06:48:00.287Z,46.5
2022-09-12T06:49:00.294Z,46.2
2022-09-12T06:50:00.392Z,45.9
2022-09-12T06:51:00.315Z,45.8
2022-09-12T06:52:00.293Z,45.4
2022-09-12T06:53:00.401Z,45.3
2022-09-12T06:54:00.313Z,45.5
2022-09-12T06:55:00.308Z,45.5
2022-09-12T06:56:00.381Z,45.6
2022-09-12T06:57:00.298Z,45.7
2022-09-12T06:58:00.300Z,46.0
2022-09-12T06:59:00.338Z,46.3
2022-09-12T07:00:00.349Z,46.6
2022-09-12T07:01:00.386Z,46.7
2022-09-12T07:02:00.867Z,47.0
2022-09-12T07:03:00.327Z,47.2
2022-09-12T07:04:00.341Z,47.3
2022-09-12T07:05:00.407Z,47.5
2022-09-12T07:06:00.345Z,47.5
2022-09-12T07:07:00.374Z,47.3
2022-09-12T07:08:00.387Z,47.3
2022-09-12T07:09:00.357Z,47.4
2022-09-12T07:10:00.306Z,47.4
2022-09-12T07:11:00.289Z,47.1
2022-09-12T07:12:00.464Z,46.1
2022-09-12T07:13:00.314Z,45.7
2022-09-12T07:14:00.314Z,45.5
2022-09-12T07:15:00.290Z,45.5
2022-09-12T07:16:00.291Z,45.7
2022-09-12T07:17:00.356Z,45.7
2022-09-12T07:18:00.500Z,45.7
2022-09-12T07:19:00.426Z,45.5
2022-09-12T07:20:00.851Z,45.6
2022-09-12T07:21:00.302Z,45.8
2022-09-12T07:22:00.379Z,45.4
2022-09-12T07:23:00.326Z,45.2
2022-09-12T07:24:00.318Z,45.4
2022-09-12T07:25:00.298Z,45.4
2022-09-12T07:26:00.299Z,45.5
2022-09-12T07:27:00.385Z,45.9
2022-09-12T07:28:00.310Z,46.1
2022-09-12T07:29:25.080Z,45.8
2022-09-12T07:30:00.326Z,45.7
2022-09-12T07:31:00.385Z,45.6
2022-09-12T07:32:00.302Z,45.7
2022-09-12T07:33:00.323Z,46.0
2022-09-12T07:34:00.394Z,46.2
2022-09-12T07:35:00.277Z,46.4
2022-09-12T07:36:00.407Z,46.7
2022-09-12T07:37:00.309Z,46.9
2022-09-12T07:38:00.342Z,47.2
2022-09-12T07:39:00.340Z,47.6
2022-09-12T07:40:00.468Z,47.9
2022-09-12T07:41:00.313Z,48.1
2022-09-12T07:42:00.470Z,48.1
2022-09-12T07:43:00.291Z,48.2
2022-09-12T07:44:00.387Z,48.0
2022-09-12T07:45:00.290Z,48.1
2022-09-12T07:46:00.354Z,47.8
2022-09-12T07:47:00.312Z,47.1
2022-09-12T07:48:00.476Z,46.7
2022-09-12T07:49:00.397Z,46.6
2022-09-12T07:50:00.296Z,46.5
2022-09-12T07:52:00.385Z,46.4
2022-09-12T07:53:00.323Z,46.4
2022-09-12T07:54:00.380Z,46.2
2022-09-12T07:55:00.307Z,46.5
2022-09-12T07:56:00.281Z,46.9
2022-09-12T07:57:00.297Z,46.9
2022-09-12T07:58:00.381Z,46.6
2022-09-12T07:59:00.300Z,46.6
2022-09-12T08:00:00.326Z,46.7
2022-09-12T08:01:00.382Z,47.0
2022-09-12T08:02:00.379Z,47.2
2022-09-12T08:03:00.311Z,46.9
2022-09-12T08:04:00.547Z,46.9
2022-09-12T08:05:00.319Z,46.9
2022-09-12T08:06:00.325Z,47.1
2022-09-12T08:07:00.304Z,47.3
2022-09-12T08:08:00.277Z,47.4
2022-09-12T08:09:00.357Z,47.4
2022-09-12T08:10:00.412Z,47.4
2022-09-12T08:11:00.289Z,47.5
2022-09-12T08:12:00.317Z,47.5
2022-09-12T08:13:00.361Z,47.5
2022-09-12T08:14:00.392Z,47.4
2022-09-12T08:15:00.299Z,47.3
2022-09-12T08:16:00.490Z,47.4
2022-09-12T08:17:00.283Z,47.4
2022-09-12T08:18:00.292Z,47.5
2022-09-12T08:19:00.298Z,47.5
2022-09-12T08:20:00.384Z,47.5
2022-09-12T08:21:00.313Z,47.5
2022-09-12T08:22:00.560Z,47.5
2022-09-12T08:23:00.308Z,47.5
2022-09-12T08:24:00.307Z,47.3
2022-09-12T08:25:00.295Z,47.2
2022-09-12T08:26:04.131Z,47.0
2022-09-12T08:27:00.389Z,46.9
2022-09-12T08:28:00.310Z,46.9
2022-09-12T08:29:00.300Z,46.8
2022-09-12T08:30:00.367Z,46.7
2022-09-12T08:31:00.348Z,46.7
2022-09-12T08:32:00.293Z,46.8
2022-09-12T08:33:00.393Z,46.7
2022-09-12T08:34:00.305Z,46.8
2022-09-12T08:35:00.281Z,47.0
2022-09-12T08:36:00.284Z,47.0
2022-09-12T08:37:00.295Z,46.7
2022-09-12T08:38:00.303Z,46.4
2022-09-12T08:39:00.677Z,46.4
2022-09-12T08:40:00.481Z,46.4
2022-09-12T08:41:00.381Z,46.4
2022-09-12T08:42:00.413Z,46.5
2022-09-12T08:43:00.443Z,46.3
2022-09-12T08:44:00.319Z,46.1
2022-09-12T08:45:00.375Z,46.1
2022-09-12T08:46:00.402Z,46.2
2022-09-12T08:47:00.377Z,46.3
2022-09-12T08:48:00.312Z,46.3
2022-09-12T08:49:00.299Z,46.4
2022-09-12T08:50:00.343Z,46.4
2022-09-12T08:51:00.291Z,46.4
2022-09-12T08:52:00.297Z,46.4
2022-09-12T08:53:00.419Z,46.4
2022-09-12T08:54:00.310Z,46.3
2022-09-12T08:55:00.299Z,46.2
2022-09-12T08:56:00.293Z,46.2
2022-09-12T08:57:00.332Z,46.1
2022-09-12T08:58:00.296Z,46.1
2022-09-12T08:59:00.454Z,46.1
2022-09-12T09:00:00.386Z,46.0
2022-09-12T09:01:00.335Z,46.0
2022-09-12T09:02:00.355Z,45.8
2022-09-12T09:03:00.399Z,45.4
2022-09-12T09:04:00.297Z,45.1
2022-09-12T09:05:00.291Z,45.0
2022-09-12T09:06:00.311Z,45.0
2022-09-12T09:07:00.299Z,45.0
2022-09-12T09:08:00.305Z,44.6
2022-09-12T09:09:00.565Z,44.2
2022-09-12T09:10:00.329Z,44.2
2022-09-12T09:11:00.416Z,44.3
2022-09-12T09:12:00.303Z,44.4
2022-09-12T09:13:00.330Z,44.4
2022-09-12T09:14:04.910Z,44.4
2022-09-12T09:15:00.381Z,44.5
2022-09-12T09:16:00.340Z,44.5
2022-09-12T09:17:00.294Z,44.2
2022-09-12T09:18:00.333Z,44.0
2022-09-12T09:19:00.320Z,44.0
2022-09-12T09:20:00.309Z,44.0
2022-09-12T09:21:00.413Z,43.9
2022-09-12T09:22:00.336Z,43.9
2022-09-12T09:23:00.396Z,43.8
2022-09-12T09:24:00.279Z,43.6
2022-09-12T09:25:00.319Z,43.6
2022-09-12T09:26:00.296Z,43.6
2022-09-12T09:27:00.503Z,43.6
2022-09-12T09:28:00.364Z,43.3
2022-09-12T09:29:00.391Z,43.0
2022-09-12T09:30:00.298Z,42.6
2022-09-12T09:31:00.440Z,41.7
2022-09-12T09:32:00.387Z,38.1
2022-09-12T09:33:00.832Z,36.6
2022-09-12T09:34:00.352Z,35.7
2022-09-12T09:35:00.299Z,34.9
2022-09-12T09:36:00.387Z,34.1
2022-09-12T09:37:00.301Z,33.5
2022-09-12T09:38:00.379Z,33.0
2022-09-12T09:39:00.461Z,32.7
2022-09-12T09:40:00.377Z,32.4
2022-09-12T09:41:00.282Z,32.2
2022-09-12T09:42:00.342Z,32.0
2022-09-12T09:43:00.317Z,31.8
2022-09-12T09:44:00.352Z,31.7
2022-09-12T09:45:00.410Z,31.6
2022-09-12T09:46:00.446Z,31.4
2022-09-12T09:47:00.327Z,31.4
2022-09-12T09:48:00.314Z,31.3
2022-09-12T09:49:03.357Z,31.2
2022-09-12T09:50:00.303Z,31.1
2022-09-12T09:51:00.433Z,31.1
2022-09-12T09:52:00.707Z,31.0
2022-09-12T09:53:00.380Z,30.8
2022-09-12T09:54:00.301Z,30.7
2022-09-12T09:55:00.311Z,30.7
2022-09-12T09:56:00.296Z,30.7
2022-09-12T09:57:00.402Z,30.7
2022-09-12T09:58:00.311Z,30.8
2022-09-12T09:59:00.296Z,30.8
2022-09-12T10:00:00.316Z,30.9
2022-09-12T10:01:00.345Z,30.9
2022-09-12T10:02:00.545Z,31.0
2022-09-12T10:03:00.395Z,31.0
2022-09-12T10:04:00.317Z,31.0
2022-09-12T10:05:00.324Z,31.0
2022-09-12T10:06:00.308Z,31.1
2022-09-12T10:07:00.395Z,31.1
2022-09-12T10:08:00.400Z,30.9
2022-09-12T10:09:00.343Z,30.6
2022-09-12T10:10:00.380Z,30.5
2022-09-12T10:11:00.323Z,30.5
2022-09-12T10:12:00.299Z,30.5
2022-09-12T10:13:00.464Z,30.5
2022-09-12T10:14:00.346Z,30.5
2022-09-12T10:15:00.348Z,30.4
2022-09-12T10:16:00.324Z,30.5
2022-09-12T10:17:00.298Z,30.5
2022-09-12T10:18:00.311Z,30.6
2022-09-12T10:19:00.464Z,30.7
2022-09-12T10:20:19.993Z,30.8
2022-09-12T10:21:00.312Z,31.0
2022-09-12T10:22:00.311Z,31.1
2022-09-12T10:23:00.286Z,31.1
2022-09-12T10:24:00.295Z,31.1
2022-09-12T10:25:00.366Z,31.1
2022-09-12T10:26:00.309Z,31.1
2022-09-12T10:27:00.441Z,31.1
2022-09-12T10:28:00.294Z,31.0
2022-09-12T10:29:00.303Z,30.9
2022-09-12T10:30:00.621Z,30.9
2022-09-12T10:31:00.415Z,30.9
2022-09-12T10:32:00.354Z,31.0
2022-09-12T10:33:00.296Z,31.2
2022-09-12T10:34:00.350Z,31.2
2022-09-12T10:35:00.282Z,31.2
2022-09-12T10:36:00.463Z,31.2
2022-09-12T10:37:00.405Z,31.3
2022-09-12T10:38:00.363Z,31.4
2022-09-12T10:39:00.447Z,31.5
2022-09-12T10:40:00.392Z,31.6
2022-09-12T10:41:00.327Z,31.4
2022-09-12T10:42:00.448Z,31.2
2022-09-12T10:43:00.422Z,31.0
2022-09-12T10:44:00.282Z,30.8
2022-09-12T10:45:00.286Z,30.9
2022-09-12T10:46:00.338Z,31.0
2022-09-12T10:47:00.395Z,31.0
2022-09-12T10:48:04.121Z,31.0
2022-09-12T10:49:00.295Z,31.0
2022-09-12T10:50:00.294Z,31.1
2022-09-12T10:51:00.315Z,31.0
2022-09-12T10:52:00.323Z,31.0
2022-09-12T10:53:00.384Z,30.9
2022-09-12T10:54:00.367Z,30.9
2022-09-12T10:55:00.289Z,30.8
2022-09-12T10:56:00.287Z,30.6
2022-09-12T10:57:00.362Z,30.5
2022-09-12T10:58:00.309Z,30.5
2022-09-12T10:59:00.305Z,30.5
2022-09-12T11:00:00.295Z,30.5
2022-09-12T11:01:00.405Z,30.4
2022-09-12T11:02:00.392Z,30.3
2022-09-12T11:03:00.392Z,30.2
2022-09-12T11:04:00.314Z,30.2
2022-09-12T11:05:00.340Z,30.3
2022-09-12T11:06:00.287Z,30.3
2022-09-12T11:07:00.300Z,30.4
2022-09-12T11:08:00.294Z,30.3
2022-09-12T11:09:00.411Z,30.3
2022-09-12T11:10:00.315Z,30.2
2022-09-12T11:11:00.297Z,30.2
2022-09-12T11:12:00.316Z,30.1
2022-09-12T11:13:00.437Z,30.1
2022-09-12T11:14:00.303Z,30.2
2022-09-12T11:15:00.353Z,30.2
2022-09-12T11:16:00.468Z,30.1
2022-09-12T11:17:00.297Z,29.9
2022-09-12T11:18:00.678Z,29.8
2022-09-12T11:19:00.365Z,29.7
2022-09-12T11:20:00.308Z,29.7
2022-09-12T11:21:00.343Z,29.5
2022-09-12T11:22:00.379Z,29.4
2022-09-12T11:23:00.313Z,29.4
2022-09-12T11:24:00.494Z,29.5
2022-09-12T11:25:00.319Z,29.6
2022-09-12T11:26:00.315Z,29.7
2022-09-12T11:27:00.302Z,29.8
2022-09-12T11:28:00.315Z,29.8
2022-09-12T11:29:00.316Z,29.9
2022-09-12T11:30:00.514Z,29.9
2022-09-12T11:31:00.424Z,30.0
2022-09-12T11:32:00.316Z,30.1
2022-09-12T11:33:00.370Z,30.1
2022-09-12T11:34:00.388Z,30.1
2022-09-12T11:35:00.334Z,30.1
2022-09-12T11:36:00.317Z,30.2
2022-09-12T11:37:00.298Z,30.2
2022-09-12T11:38:00.301Z,30.3
2022-09-12T11:39:00.420Z,30.2
2022-09-12T11:40:00.471Z,30.2
2022-09-12T11:41:00.313Z,30.1
2022-09-12T11:42:00.315Z,30.0
2022-09-12T11:43:00.285Z,30.1
2022-09-12T11:44:00.332Z,30.1
2022-09-12T11:45:00.294Z,30.1
2022-09-12T11:46:00.468Z,30.1
2022-09-12T11:47:00.331Z,30.1
2022-09-12T11:48:00.294Z,30.0
2022-09-12T11:49:00.329Z,30.0
2022-09-12T11:50:00.315Z,30.1
2022-09-12T11:51:00.282Z,30.1
2022-09-12T11:52:00.430Z,30.2
2022-09-12T11:53:00.350Z,30.1
2022-09-12T11:54:00.407Z,30.1
2022-09-12T11:55:00.373Z,30.1
2022-09-12T11:56:00.352Z,30.0
2022-09-12T11:57:00.291Z,30.0
2022-09-12T11:58:00.406Z,30.0
2022-09-12T11:59:00.321Z,30.0
2022-09-12T12:00:00.325Z,30.0
2022-09-12T12:01:00.313Z,30.0
2022-09-12T12:02:00.467Z,30.0
2022-09-12T12:03:00.419Z,30.1
2022-09-12T12:04:00.461Z,30.1
2022-09-12T12:05:00.362Z,30.1
2022-09-12T12:06:00.303Z,30.0
2022-09-12T12:07:00.306Z,30.0
2022-09-12T12:08:00.447Z,30.0
2022-09-12T12:09:00.299Z,30.0
2022-09-12T12:10:00.390Z,30.0
2022-09-12T12:11:00.313Z,30.0
2022-09-12T12:12:00.330Z,30.0
2022-09-12T12:13:00.404Z,30.1
2022-09-12T12:14:00.305Z,30.1
2022-09-12T12:15:00.295Z,30.0
2022-09-12T12:16:00.370Z,30.0
2022-09-12T12:17:00.305Z,29.9
2022-09-12T12:18:00.297Z,29.8
2022-09-12T12:19:00.408Z,29.8
2022-09-12T12:20:05.555Z,29.8
2022-09-12T12:21:00.300Z,29.8
2022-09-12T12:22:00.311Z,29.8
2022-09-12T12:23:00.321Z,29.7
2022-09-12T12:24:00.312Z,29.7
2022-09-12T12:25:00.398Z,29.8
2022-09-12T12:26:00.318Z,29.8
2022-09-12T12:27:00.320Z,29.8
2022-09-12T12:28:00.297Z,29.8
2022-09-12T12:29:00.322Z,29.8
2022-09-12T12:30:00.314Z,29.8
2022-09-12T12:31:00.677Z,29.8
2022-09-12T12:32:00.577Z,29.7
2022-09-12T12:33:00.372Z,29.7
2022-09-12T12:34:00.303Z,29.7
2022-09-12T12:35:00.306Z,29.7
2022-09-12T12:36:00.359Z,29.7
2022-09-12T12:37:04.316Z,29.7
2022-09-12T12:38:00.398Z,29.7
2022-09-12T12:39:00.323Z,29.7
2022-09-12T12:40:00.526Z,29.8
2022-09-12T12:41:00.378Z,29.8
2022-09-12T12:42:00.286Z,29.8
2022-09-12T12:43:00.408Z,29.8
2022-09-12T12:44:00.304Z,29.8
2022-09-12T12:45:00.318Z,29.9
2022-09-12T12:46:00.358Z,29.9
2022-09-12T12:47:00.328Z,29.9
2022-09-12T12:48:00.306Z,29.9
2022-09-12T12:49:00.398Z,29.9
2022-09-12T12:50:00.306Z,29.9
2022-09-12T12:51:00.457Z,29.9
2022-09-12T12:52:00.329Z,30.0
2022-09-12T12:53:00.378Z,30.0
2022-09-12T12:54:00.297Z,30.0
2022-09-12T12:55:00.458Z,30.0
2022-09-12T12:56:00.292Z,29.9
2022-09-12T12:57:00.324Z,29.9
2022-09-12T12:58:00.299Z,29.8
2022-09-12T12:59:00.325Z,29.8
2022-09-12T13:00:00.335Z,29.7
2022-09-12T13:01:00.424Z,29.6
2022-09-12T13:02:00.377Z,29.6
2022-09-12T13:03:00.329Z,29.6
2022-09-12T13:04:00.386Z,29.7
2022-09-12T13:05:00.363Z,29.8
2022-09-12T13:06:00.383Z,29.8
2022-09-12T13:07:03.482Z,29.8
2022-09-12T13:08:00.357Z,29.9
2022-09-12T13:09:00.310Z,29.9
2022-09-12T13:10:00.317Z,29.9
2022-09-12T13:11:00.326Z,29.9
2022-09-12T13:12:00.296Z,29.8
2022-09-12T13:13:00.398Z,29.9
2022-09-12T13:14:00.312Z,29.9
2022-09-12T13:15:00.299Z,29.9
2022-09-12T13:16:00.371Z,29.9
2022-09-12T13:17:00.339Z,30.0
2022-09-12T13:18:00.330Z,30.0
2022-09-12T13:19:00.425Z,29.9